Airfield :







YOU CAN JOIN US ON...

 
LOGIN :

Register | Disclaimer

   EN    FR    IT 

 









Legend :    VFR   Marginal VFR   IFR   Intensive IFR   Very Intensive IFR
Visi :
Ceiling :
>= 8 km
>= 3000ft
5 to 8 km
1000 to 3000 ft
1500m to 5 km
500 to 1000 ft
800 to 1500m
200 to 500 ft
< 800m
< 200 ft
Symbols :   Thunderstorms  Fog  Heavy snow  Heavy precipitations  Wind > 20 kt






- Airport Elevation : 108 ft
- IATA code : YGP


CYGP - Gaspé

CURRENT METAR :
  • 010500Z 04004KT 010V070 3SM -SN OVC012 00/M00 A3011 RMK SC8 /S01/ SLP200

EXPIRED METARs :
  • 010400Z 04004KT 020V090 3SM -SN OVC020 00/M01 A3013 RMK SC8 SLP207
  • 010300Z 04004KT 340V060 3SM -SN OVC016 00/M01 A3014 RMK SC8 /S01/ SLP209

TAF TAF CYGP
Valid from the 01 at 02:00 until the 01 at 14:00 UTC


010138Z 0102/0114 03010KT 6SM -SN FEW008 OVC025
TEMPO 0102/0103 2SM -SN OVC008
FM010300 05012G22KT 4SM -SN OVC012
TEMPO 0103/0113 2SM -SN OVC006
PROB30 0103/0113 1SM -SN
FM011300 05010G20KT 6SM -RASN BR BKN006 OVC020 RMK NXT FCST BY 010800Z



MET'MAP, your aeronautical weather chart ! - Copyright ORBIFLY December 2007 - Disclaimer

ORBIFLY MET'MAP TEAM :

Programming & Development : Alexandra Zaïnal
Concept & original design : Baudouin d'Aumeries
Assistance for programming : Marc-Olivier Méhu
Technical & hardware support : Manuel Goepfert

Contact : metmap@orbifly.com




SOURCES & CREDITS :

   NOAA